LFRB/BES METAR and TAF weather

Enter ICAO airport designator
Station Type Date Time Source
LFRB METAR 2019/06/18 15:00 UTC NOAA

LFRB 181500Z AUTO 05007KT 030V100 CAVOK 20/14 Q1010 TEMPO 1200 TSRA BKN012CB


Station Type Date Time Source
LFRB Decoded METAR 2019/06/18 15:00 UTC NOAA

Brest, France (LFRB) 48-27N 004-25W 103M
Jun 18, 2019 - 11:00 AM EDT / 2019.06.18 1500 UTC
Wind: from the NE (050 degrees) at 8 MPH (7 KT) (direction variable):0
Visibility: greater than 7 mile(s):0
Weather: Cumulonimbus clouds observed
Temperature: 68 F (20 C)
Dew Point: 57 F (14 C)
Relative Humidity: 68%
Pressure (altimeter): 29.83 in. Hg (1010 hPa)
ob: LFRB 181500Z AUTO 05007KT 030V100 CAVOK 20/14 Q1010 TEMPO 1200 TSRA BKN012CB
cycle: 15

Station Type Date Time Source
LFRB TAF 2019/06/18 12:46 UTC NOAA

TAF LFRB 181100Z 1812/1918 10006KT 9999 SCT022
TEMPO 1812/1916 4000 SHRA BKN014 PROB30
TEMPO 1812/1904 1200 TSRA BKN012CB

Example: see airport list